Time;durP1;ratioP1;P1;durP2;ratioP2;P2;SDS_P1;SDS_P2;PMS_P1;PMS_P2;Temp;Humidity;BMP_temperature;BMP_pressure;BME280_temperature;BME280_humidity;BME280_pressure;Samples;Min_cycle;Max_cycle;Signal;HPM_P1;HPM_P2
2022/05/20 00:02:54;;;;;;;16.05;14.85;;;;;;;;;;6200820;28;20233;-68
2022/05/20 00:06:16;;;;;;;17.48;16.00;;;;;;;;;;6206496;28;20626;-67
2022/05/20 00:09:37;;;;;;;14.43;13.43;;;;;;;;;;6194630;28;20316;-68
2022/05/20 00:12:58;;;;;;;14.80;13.65;;;;;;;;;;6204831;28;20221;-67
2022/05/20 00:16:18;;;;;;;13.63;12.35;;;;;;;;;;6205848;28;20269;-68
2022/05/20 00:19:40;;;;;;;14.40;13.20;;;;;;;;;;6202804;28;20253;-68
2022/05/20 00:23:04;;;;;;;14.65;13.50;;;;;;;;;;6204486;28;20229;-67
2022/05/20 00:26:24;;;;;;;16.58;14.98;;;;;;;;;;6207509;28;20238;-67
2022/05/20 00:29:46;;;;;;;15.40;14.18;;;;;;;;;;6203847;28;20229;-67
2022/05/20 00:33:06;;;;;;;14.95;13.70;;;;;;;;;;6202899;28;20614;-67
2022/05/20 00:36:27;;;;;;;14.73;13.50;;;;;;;;;;6202065;28;20229;-68
2022/05/20 00:39:49;;;;;;;16.85;15.30;;;;;;;;;;6204753;28;20637;-67
2022/05/20 00:43:15;;;;;;;18.42;16.92;;;;;;;;;;6205037;28;20218;-67
2022/05/20 00:46:35;;;;;;;17.70;16.10;;;;;;;;;;6203720;28;20237;-66
2022/05/20 00:49:57;;;;;;;17.92;16.35;;;;;;;;;;6205950;28;20236;-65
2022/05/20 00:53:20;;;;;;;19.67;18.02;;;;;;;;;;6206121;28;20230;-67
2022/05/20 00:56:45;;;;;;;20.13;18.52;;;;;;;;;;6202528;28;20264;-67
2022/05/20 01:00:08;;;;;;;19.38;17.67;;;;;;;;;;6203521;28;20226;-67
2022/05/20 01:03:29;;;;;;;19.55;18.00;;;;;;;;;;6201660;28;20250;-67
2022/05/20 01:06:51;;;;;;;20.10;18.25;;;;;;;;;;6198294;28;20607;-67
2022/05/20 01:10:11;;;;;;;21.52;19.73;;;;;;;;;;6205060;28;20237;-68
2022/05/20 01:13:34;;;;;;;21.80;19.73;;;;;;;;;;6204353;28;20226;-68
2022/05/20 01:16:55;;;;;;;23.27;21.15;;;;;;;;;;6206871;28;20233;-67
2022/05/20 01:20:18;;;;;;;21.05;19.35;;;;;;;;;;6204516;28;20237;-67
2022/05/20 01:23:40;;;;;;;21.90;19.90;;;;;;;;;;6198326;28;20233;-69
2022/05/20 01:27:01;;;;;;;22.25;20.02;;;;;;;;;;6202916;28;20336;-67
2022/05/20 01:30:22;;;;;;;25.17;22.83;;;;;;;;;;6201233;28;20232;-67
2022/05/20 01:33:45;;;;;;;25.40;23.02;;;;;;;;;;6200086;28;20232;-67
2022/05/20 01:37:06;;;;;;;21.25;19.55;;;;;;;;;;6205953;28;20232;-67
2022/05/20 01:40:32;;;;;;;21.58;19.63;;;;;;;;;;6202412;28;20233;-68
2022/05/20 01:43:56;;;;;;;22.67;20.63;;;;;;;;;;6192395;28;20233;-68
2022/05/20 01:47:17;;;;;;;21.85;19.83;;;;;;;;;;6201284;28;20256;-69
2022/05/20 01:50:41;;;;;;;24.38;22.15;;;;;;;;;;6203322;28;20228;-68
2022/05/20 01:54:04;;;;;;;26.13;23.60;;;;;;;;;;6188957;28;20623;-67
2022/05/20 01:57:30;;;;;;;27.17;24.75;;;;;;;;;;6200928;28;20560;-68
2022/05/20 02:00:55;;;;;;;24.05;21.73;;;;;;;;;;6201514;28;20332;-67
2022/05/20 02:04:18;;;;;;;25.45;23.05;;;;;;;;;;6205172;28;20260;-68
2022/05/20 02:07:42;;;;;;;25.38;22.90;;;;;;;;;;6202668;28;20233;-68
2022/05/20 02:11:05;;;;;;;21.35;19.42;;;;;;;;;;6190393;28;21752;-67
2022/05/20 02:14:30;;;;;;;19.88;17.98;;;;;;;;;;6206279;28;20245;-67
2022/05/20 02:17:54;;;;;;;18.30;16.48;;;;;;;;;;6198716;28;20260;-67
2022/05/20 02:21:16;;;;;;;19.08;17.08;;;;;;;;;;6201528;28;20237;-68
2022/05/20 02:24:39;;;;;;;15.05;13.52;;;;;;;;;;6203394;28;20323;-68
2022/05/20 02:28:02;;;;;;;13.45;12.38;;;;;;;;;;6199745;28;20229;-68
2022/05/20 02:31:25;;;;;;;11.25;10.32;;;;;;;;;;6202993;28;20233;-67
2022/05/20 02:34:48;;;;;;;12.25;11.15;;;;;;;;;;6198197;28;20580;-68
2022/05/20 02:38:09;;;;;;;10.17;9.20;;;;;;;;;;6197756;28;20324;-68
2022/05/20 02:41:31;;;;;;;11.27;10.13;;;;;;;;;;6204761;28;20253;-67
2022/05/20 02:44:51;;;;;;;9.63;8.63;;;;;;;;;;6202750;28;20237;-68
2022/05/20 02:48:15;;;;;;;9.48;8.60;;;;;;;;;;6207429;28;20240;-67
2022/05/20 02:51:36;;;;;;;9.63;8.50;;;;;;;;;;6195064;28;20259;-68
2022/05/20 02:54:56;;;;;;;8.95;8.15;;;;;;;;;;6206160;28;20229;-68
2022/05/20 03:05:35;;;;;;;7.68;6.00;;;;;;;;;;6203580;28;20221;-68
2022/05/20 03:08:55;;;;;;;6.75;6.03;;;;;;;;;;6202894;28;20233;-68
2022/05/20 03:12:16;;;;;;;7.57;6.80;;;;;;;;;;6207896;28;20229;-66
2022/05/20 03:15:37;;;;;;;6.37;5.77;;;;;;;;;;6207107;28;20249;-68
2022/05/20 03:18:57;;;;;;;5.80;5.20;;;;;;;;;;6204652;28;20229;-68
2022/05/20 03:22:21;;;;;;;6.43;5.07;;;;;;;;;;6209445;28;20245;-68
2022/05/20 03:25:42;;;;;;;8.70;5.70;;;;;;;;;;6212466;28;20229;-68
2022/05/20 03:29:04;;;;;;;5.27;4.87;;;;;;;;;;6202247;28;20237;-67
2022/05/20 03:32:25;;;;;;;4.97;4.57;;;;;;;;;;6201437;28;20506;-68
2022/05/20 03:35:46;;;;;;;6.00;5.07;;;;;;;;;;6203659;28;20225;-68
2022/05/20 03:39:10;;;;;;;7.50;4.95;;;;;;;;;;6194129;28;20221;-68
2022/05/20 03:42:30;;;;;;;5.73;4.77;;;;;;;;;;6204433;28;20573;-69
2022/05/20 03:45:52;;;;;;;7.13;5.20;;;;;;;;;;6204864;28;21631;-68
2022/05/20 03:49:13;;;;;;;7.70;4.87;;;;;;;;;;6203819;28;20272;-68
2022/05/20 03:52:34;;;;;;;6.10;4.73;;;;;;;;;;6204447;28;20229;-67
2022/05/20 03:55:56;;;;;;;5.10;4.53;;;;;;;;;;6204569;28;21051;-67
2022/05/20 03:59:17;;;;;;;6.43;4.10;;;;;;;;;;6206008;28;20226;-68
2022/05/20 04:02:38;;;;;;;4.43;3.57;;;;;;;;;;6204199;28;20233;-70
2022/05/20 04:06:00;;;;;;;4.77;3.63;;;;;;;;;;6203974;28;20233;-66
2022/05/20 04:09:21;;;;;;;6.37;4.70;;;;;;;;;;6201682;28;20237;-68
2022/05/20 04:12:43;;;;;;;5.10;4.53;;;;;;;;;;6206167;28;20644;-67
2022/05/20 04:16:06;;;;;;;4.30;3.90;;;;;;;;;;6207160;28;20233;-68
2022/05/20 04:19:29;;;;;;;6.00;3.70;;;;;;;;;;6200344;28;20233;-67
2022/05/20 04:22:50;;;;;;;5.93;3.60;;;;;;;;;;6203589;28;20229;-67
2022/05/20 04:26:11;;;;;;;5.50;4.70;;;;;;;;;;6207135;28;20261;-67
2022/05/20 04:29:34;;;;;;;6.43;4.10;;;;;;;;;;6206231;28;20233;-68
2022/05/20 04:32:55;;;;;;;9.73;4.17;;;;;;;;;;6202840;28;20229;-68
2022/05/20 04:36:15;;;;;;;9.40;3.70;;;;;;;;;;6203552;28;20233;-68
2022/05/20 04:39:36;;;;;;;6.43;4.03;;;;;;;;;;6204582;28;20237;-68
2022/05/20 04:46:57;;;;;;;5.47;4.17;;;;;;;;;;6155115;28;20328;-68
2022/05/20 04:50:18;;;;;;;6.73;4.00;;;;;;;;;;6160889;28;20228;-67
2022/05/20 04:57:25;;;;;;;8.47;4.47;;;;;;;;;;6204547;28;20224;-67
2022/05/20 05:00:46;;;;;;;6.57;4.87;;;;;;;;;;6196215;28;20224;-69
2022/05/20 05:04:08;;;;;;;5.10;3.87;;;;;;;;;;6188467;28;20233;-67
2022/05/20 05:07:29;;;;;;;6.10;5.03;;;;;;;;;;6205431;28;20249;-68
2022/05/20 05:10:52;;;;;;;5.50;4.03;;;;;;;;;;6202978;28;20229;-68
2022/05/20 05:14:13;;;;;;;4.40;3.93;;;;;;;;;;6200684;28;20252;-68
2022/05/20 05:21:15;;;;;;;5.27;3.73;;;;;;;;;;6204723;28;20738;-68
2022/05/20 05:24:36;;;;;;;4.83;3.77;;;;;;;;;;6209327;28;20225;-68
2022/05/20 05:27:57;;;;;;;6.47;4.30;;;;;;;;;;6209679;28;20269;-68
2022/05/20 05:31:17;;;;;;;7.83;3.47;;;;;;;;;;6207473;28;20746;-68
2022/05/20 05:34:38;;;;;;;5.03;3.37;;;;;;;;;;6207361;28;20225;-68
2022/05/20 05:38:00;;;;;;;3.63;3.33;;;;;;;;;;6205935;28;20854;-68
2022/05/20 05:41:21;;;;;;;4.07;3.27;;;;;;;;;;6191874;28;20245;-70
2022/05/20 05:44:44;;;;;;;4.23;3.03;;;;;;;;;;6193452;28;20232;-71
2022/05/20 05:48:06;;;;;;;7.87;3.10;;;;;;;;;;6194930;28;20576;-70
2022/05/20 05:51:27;;;;;;;4.90;3.80;;;;;;;;;;6197696;28;20241;-72
2022/05/20 05:54:49;;;;;;;4.63;3.17;;;;;;;;;;6205160;28;20241;-73
2022/05/20 05:58:09;;;;;;;5.20;2.63;;;;;;;;;;6201946;28;20229;-69
2022/05/20 06:01:29;;;;;;;11.32;3.28;;;;;;;;;;6188796;28;20249;-71
2022/05/20 06:04:50;;;;;;;4.72;2.30;;;;;;;;;;6196000;28;20320;-71
2022/05/20 06:08:11;;;;;;;4.97;3.13;;;;;;;;;;6206342;28;20240;-71
2022/05/20 06:11:33;;;;;;;3.38;2.30;;;;;;;;;;6201653;28;20610;-69
2022/05/20 06:14:53;;;;;;;6.53;3.10;;;;;;;;;;6202623;28;20229;-71
2022/05/20 06:18:14;;;;;;;4.05;2.65;;;;;;;;;;6201198;28;20233;-71
2022/05/20 06:21:35;;;;;;;4.15;2.60;;;;;;;;;;6194431;28;20592;-73
2022/05/20 06:24:55;;;;;;;4.60;2.58;;;;;;;;;;6196432;28;20238;-73
2022/05/20 06:28:18;;;;;;;3.63;2.95;;;;;;;;;;6203140;28;20568;-70
2022/05/20 06:31:39;;;;;;;3.70;2.42;;;;;;;;;;6196224;28;20450;-68
2022/05/20 06:42:15;;;;;;;5.22;2.20;;;;;;;;;;6198970;28;20225;-69
2022/05/20 06:45:39;;;;;;;4.45;1.90;;;;;;;;;;6202164;28;20241;-68
2022/05/20 06:49:01;;;;;;;4.43;2.35;;;;;;;;;;6195575;28;20244;-70
2022/05/20 06:52:21;;;;;;;4.88;2.08;;;;;;;;;;6188535;28;20324;-75
2022/05/20 06:55:42;;;;;;;6.00;2.50;;;;;;;;;;6188759;28;21020;-69
2022/05/20 06:59:04;;;;;;;3.65;2.15;;;;;;;;;;6189681;28;20253;-72
2022/05/20 07:02:26;;;;;;;6.55;2.13;;;;;;;;;;6187902;28;20792;-71
2022/05/20 07:05:46;;;;;;;2.67;2.03;;;;;;;;;;6197082;28;20520;-73
2022/05/20 07:09:07;;;;;;;2.83;2.25;;;;;;;;;;6197413;28;20233;-69
2022/05/20 07:12:28;;;;;;;7.72;2.60;;;;;;;;;;6206282;28;20263;-71
2022/05/20 07:15:48;;;;;;;3.65;2.05;;;;;;;;;;6199303;28;20320;-69
2022/05/20 07:19:11;;;;;;;4.20;1.88;;;;;;;;;;6197171;28;20233;-70
2022/05/20 07:22:31;;;;;;;4.60;2.08;;;;;;;;;;6204371;28;20229;-70
2022/05/20 07:25:52;;;;;;;6.13;2.03;;;;;;;;;;6203640;28;20233;-70
2022/05/20 07:29:12;;;;;;;5.22;2.22;;;;;;;;;;6194665;28;20320;-70
2022/05/20 07:32:33;;;;;;;2.75;1.85;;;;;;;;;;6202664;28;20241;-70
2022/05/20 07:35:55;;;;;;;5.55;1.73;;;;;;;;;;6207337;28;20536;-70
2022/05/20 07:39:16;;;;;;;6.03;2.63;;;;;;;;;;6195907;28;20503;-70
2022/05/20 07:42:37;;;;;;;5.60;1.88;;;;;;;;;;6200856;28;20261;-70
2022/05/20 07:45:57;;;;;;;2.88;1.83;;;;;;;;;;6205465;28;20233;-73
2022/05/20 07:49:18;;;;;;;4.00;1.83;;;;;;;;;;6205866;28;20237;-73
2022/05/20 07:56:22;;;;;;;3.10;1.70;;;;;;;;;;6203063;28;20237;-70
2022/05/20 07:59:44;;;;;;;3.42;1.85;;;;;;;;;;6199780;28;20229;-69
2022/05/20 08:03:05;;;;;;;3.42;1.23;;;;;;;;;;6187393;28;20241;-69
2022/05/20 08:06:25;;;;;;;5.13;2.10;;;;;;;;;;6181875;28;20604;-67
2022/05/20 08:09:47;;;;;;;6.45;2.47;;;;;;;;;;6200828;28;20224;-72
2022/05/20 08:13:08;;;;;;;2.85;1.50;;;;;;;;;;6197856;28;20234;-73
2022/05/20 08:16:28;;;;;;;5.43;2.22;;;;;;;;;;6198221;28;21097;-72
2022/05/20 08:19:51;;;;;;;4.55;1.75;;;;;;;;;;6197689;28;20838;-73
2022/05/20 08:23:11;;;;;;;3.72;2.20;;;;;;;;;;6197550;28;20546;-73
2022/05/20 08:26:33;;;;;;;3.17;1.50;;;;;;;;;;6202875;28;20328;-76
2022/05/20 08:29:55;;;;;;;3.55;1.85;;;;;;;;;;6197078;28;20229;-73
2022/05/20 08:33:15;;;;;;;3.30;2.17;;;;;;;;;;6203893;28;20614;-70
2022/05/20 08:36:38;;;;;;;6.22;2.20;;;;;;;;;;6203767;28;20316;-78
2022/05/20 08:39:59;;;;;;;5.28;1.63;;;;;;;;;;6202966;28;20808;-74
2022/05/20 08:43:23;;;;;;;2.35;2.00;;;;;;;;;;6206032;28;20570;-73
2022/05/20 08:46:45;;;;;;;3.90;1.90;;;;;;;;;;6203320;28;20229;-77
2022/05/20 08:50:07;;;;;;;3.15;1.90;;;;;;;;;;6204010;28;20233;-72
2022/05/20 08:53:29;;;;;;;3.92;1.83;;;;;;;;;;6199872;28;20599;-72
2022/05/20 08:56:50;;;;;;;3.42;1.60;;;;;;;;;;6200054;28;20225;-73
2022/05/20 09:00:13;;;;;;;2.80;1.92;;;;;;;;;;6197266;28;20217;-72
2022/05/20 09:03:35;;;;;;;3.00;1.77;;;;;;;;;;6203880;28;20245;-73
2022/05/20 09:07:01;;;;;;;2.80;1.70;;;;;;;;;;6205012;28;20590;-69
2022/05/20 09:10:28;;;;;;;8.02;2.00;;;;;;;;;;6204555;28;20237;-71
2022/05/20 09:17:43;;;;;;;3.28;1.80;;;;;;;;;;6168552;28;20657;-71
2022/05/20 09:21:05;;;;;;;2.38;1.65;;;;;;;;;;6199647;28;20237;-70
2022/05/20 09:24:26;;;;;;;3.90;1.70;;;;;;;;;;6205626;28;20563;-69
2022/05/20 09:27:47;;;;;;;1.73;1.38;;;;;;;;;;6191514;28;20229;-69
2022/05/20 09:31:14;;;;;;;5.97;2.67;;;;;;;;;;6200186;28;20225;-69
2022/05/20 09:34:38;;;;;;;3.50;1.65;;;;;;;;;;6207832;28;20222;-70
2022/05/20 09:37:59;;;;;;;2.03;1.42;;;;;;;;;;6204469;28;20241;-69
2022/05/20 09:41:21;;;;;;;3.38;1.90;;;;;;;;;;6208282;28;20246;-70
2022/05/20 09:44:43;;;;;;;3.33;1.55;;;;;;;;;;6206779;28;20233;-70
2022/05/20 09:48:04;;;;;;;3.13;1.65;;;;;;;;;;6205191;28;20236;-64
2022/05/20 09:51:31;;;;;;;5.90;2.58;;;;;;;;;;6210073;28;20716;-68
2022/05/20 09:54:58;;;;;;;3.15;1.70;;;;;;;;;;6205819;28;20316;-73
2022/05/20 09:58:20;;;;;;;6.57;2.67;;;;;;;;;;6208250;28;20236;-73
2022/05/20 10:01:43;;;;;;;6.10;1.98;;;;;;;;;;6192342;28;20233;-74
2022/05/20 10:05:08;;;;;;;1.98;1.77;;;;;;;;;;6206058;28;20233;-73
2022/05/20 10:08:33;;;;;;;5.82;2.45;;;;;;;;;;6209616;28;20233;-77
2022/05/20 10:11:55;;;;;;;2.90;1.90;;;;;;;;;;6205685;28;20229;-73
2022/05/20 10:15:19;;;;;;;2.70;1.40;;;;;;;;;;6195945;28;20241;-72
2022/05/20 10:18:44;;;;;;;2.28;1.63;;;;;;;;;;6196867;28;20232;-71
2022/05/20 10:22:10;;;;;;;3.53;1.60;;;;;;;;;;6207334;28;20229;-69
2022/05/20 10:25:35;;;;;;;2.70;1.63;;;;;;;;;;6171631;28;20503;-70
2022/05/20 10:32:40;;;;;;;5.38;1.70;;;;;;;;;;6194073;28;20217;-71
2022/05/20 10:36:07;;;;;;;3.97;2.10;;;;;;;;;;6203836;28;20563;-69
2022/05/20 10:39:35;;;;;;;7.95;1.55;;;;;;;;;;6211452;28;20579;-68
2022/05/20 10:43:02;;;;;;;4.25;2.00;;;;;;;;;;6194914;28;20237;-69
2022/05/20 10:50:07;;;;;;;6.78;2.85;;;;;;;;;;6206455;28;20228;-70
2022/05/20 10:53:35;;;;;;;5.07;2.10;;;;;;;;;;6209390;28;20237;-69
2022/05/20 10:57:02;;;;;;;4.57;2.47;;;;;;;;;;6193187;28;20233;-70
2022/05/20 11:00:29;;;;;;;4.43;2.65;;;;;;;;;;6199054;28;20515;-70
2022/05/20 11:04:05;;;;;;;4.80;2.70;;;;;;;;;;6197586;28;20237;-72
2022/05/20 11:07:38;;;;;;;6.25;2.33;;;;;;;;;;6184830;28;20228;-71
2022/05/20 11:11:12;;;;;;;3.00;1.92;;;;;;;;;;6201571;28;20225;-69
2022/05/20 11:14:43;;;;;;;4.05;2.60;;;;;;;;;;6193851;28;20232;-69
2022/05/20 11:18:18;;;;;;;5.40;2.33;;;;;;;;;;6185194;28;20236;-69
2022/05/20 11:21:54;;;;;;;3.10;2.05;;;;;;;;;;6184208;28;20230;-67
2022/05/20 11:25:32;;;;;;;4.07;2.65;;;;;;;;;;6188994;28;20237;-69
2022/05/20 11:28:58;;;;;;;3.35;2.30;;;;;;;;;;6189650;28;20327;-70
2022/05/20 11:32:22;;;;;;;7.03;3.28;;;;;;;;;;6193826;28;20264;-69
2022/05/20 11:35:55;;;;;;;7.72;3.03;;;;;;;;;;6202504;28;20326;-67
2022/05/20 11:39:34;;;;;;;6.35;3.83;;;;;;;;;;6207393;28;20229;-67
2022/05/20 11:43:06;;;;;;;4.63;2.63;;;;;;;;;;6203691;28;20233;-66
2022/05/20 11:46:34;;;;;;;6.00;2.80;;;;;;;;;;6197503;28;20256;-67
2022/05/20 11:50:03;;;;;;;4.22;3.10;;;;;;;;;;6200865;28;20279;-69
2022/05/20 11:53:27;;;;;;;3.95;3.20;;;;;;;;;;6187130;28;20259;-68
2022/05/20 11:56:50;;;;;;;4.10;3.22;;;;;;;;;;6197867;28;20225;-68
2022/05/20 12:00:13;;;;;;;5.38;3.25;;;;;;;;;;6192194;28;20249;-66
2022/05/20 12:04:06;;;;;;;5.07;3.47;;;;;;;;;;6194694;28;20233;-68
2022/05/20 12:07:17;;;;;;;3.38;2.40;;;;;;;;;;6200826;28;20229;-68
2022/05/20 12:10:45;;;;;;;2.92;2.50;;;;;;;;;;6207139;28;20754;-68
2022/05/20 12:14:07;;;;;;;3.67;2.60;;;;;;;;;;6195185;28;20242;-68
2022/05/20 12:17:29;;;;;;;4.43;3.33;;;;;;;;;;6197674;28;20312;-67
2022/05/20 12:24:33;;;;;;;4.25;2.60;;;;;;;;;;6185040;28;20237;-67
2022/05/20 12:28:04;;;;;;;4.03;2.08;;;;;;;;;;6191747;28;20324;-69
2022/05/20 12:31:40;;;;;;;4.82;2.78;;;;;;;;;;6202701;28;20238;-67
2022/05/20 12:35:08;;;;;;;3.58;2.80;;;;;;;;;;6204846;28;20233;-67
2022/05/20 12:38:28;;;;;;;11.82;10.82;;;;;;;;;;6203527;28;20241;-67
2022/05/20 12:42:02;;;;;;;4.60;4.18;;;;;;;;;;6202492;28;20225;-67
2022/05/20 12:45:24;;;;;;;3.30;2.97;;;;;;;;;;6201511;28;20440;-66
2022/05/20 12:48:45;;;;;;;4.30;3.35;;;;;;;;;;6206486;28;20237;-66
2022/05/20 12:52:09;;;;;;;4.78;2.90;;;;;;;;;;6205273;28;20237;-68
2022/05/20 12:55:33;;;;;;;3.78;2.70;;;;;;;;;;6201859;28;20273;-68
2022/05/20 12:58:53;;;;;;;4.22;2.63;;;;;;;;;;6196038;28;20717;-69
2022/05/20 13:02:16;;;;;;;2.90;2.25;;;;;;;;;;6201470;28;20225;-66
2022/05/20 13:05:37;;;;;;;6.15;2.30;;;;;;;;;;6188195;28;20496;-67
2022/05/20 13:08:59;;;;;;;2.42;2.22;;;;;;;;;;6207147;28;20233;-66
2022/05/20 13:12:21;;;;;;;4.18;2.78;;;;;;;;;;6203695;28;20292;-68
2022/05/20 13:15:44;;;;;;;3.83;3.13;;;;;;;;;;6200559;28;20245;-71
2022/05/20 13:19:10;;;;;;;5.20;3.97;;;;;;;;;;6196401;28;20240;-67
2022/05/20 13:22:31;;;;;;;10.88;9.75;;;;;;;;;;6202732;28;20253;-68
2022/05/20 13:25:51;;;;;;;27.95;25.45;;;;;;;;;;6187636;28;20235;-68
2022/05/20 13:29:14;;;;;;;3.58;3.28;;;;;;;;;;6208518;28;20236;-68
2022/05/20 13:32:34;;;;;;;3.55;3.22;;;;;;;;;;6184893;28;20885;-67
2022/05/20 13:35:56;;;;;;;7.07;4.30;;;;;;;;;;6199072;28;20244;-68
2022/05/20 13:39:19;;;;;;;11.57;10.38;;;;;;;;;;6199943;28;20332;-67
2022/05/20 13:42:40;;;;;;;11.32;10.27;;;;;;;;;;6202883;28;20245;-69
2022/05/20 13:49:40;;;;;;;6.82;3.80;;;;;;;;;;6204830;28;20791;-68
2022/05/20 13:53:04;;;;;;;18.35;16.85;;;;;;;;;;6196304;28;20831;-68
2022/05/20 13:56:28;;;;;;;10.77;7.25;;;;;;;;;;6198631;28;20236;-67
2022/05/20 13:59:49;;;;;;;7.90;4.00;;;;;;;;;;6203775;28;20324;-68
2022/05/20 14:03:15;;;;;;;4.72;3.45;;;;;;;;;;6199582;28;20319;-69
2022/05/20 14:06:38;;;;;;;4.68;3.20;;;;;;;;;;6193214;28;20327;-68
2022/05/20 14:10:01;;;;;;;6.22;5.45;;;;;;;;;;6203562;28;20233;-67
2022/05/20 14:13:24;;;;;;;3.60;2.90;;;;;;;;;;6199606;28;20356;-68
2022/05/20 14:16:48;;;;;;;12.48;11.18;;;;;;;;;;6193377;28;20654;-67
2022/05/20 14:20:12;;;;;;;17.02;15.35;;;;;;;;;;6191522;28;20229;-67
2022/05/20 14:23:37;;;;;;;7.38;5.47;;;;;;;;;;6191741;28;20240;-68
2022/05/20 14:26:59;;;;;;;17.75;15.75;;;;;;;;;;6195675;28;20381;-67
2022/05/20 14:30:24;;;;;;;12.18;10.50;;;;;;;;;;6194179;28;20229;-68
2022/05/20 14:33:46;;;;;;;5.22;3.58;;;;;;;;;;6188261;28;20785;-67
2022/05/20 14:37:08;;;;;;;6.35;5.75;;;;;;;;;;6190925;28;20228;-68
2022/05/20 14:40:29;;;;;;;4.82;3.90;;;;;;;;;;6201380;28;20260;-67
2022/05/20 14:43:53;;;;;;;11.48;10.35;;;;;;;;;;6199455;28;20229;-68
2022/05/20 14:47:15;;;;;;;4.40;4.00;;;;;;;;;;6195655;28;20603;-69
2022/05/20 14:50:37;;;;;;;5.00;4.53;;;;;;;;;;6207362;28;20229;-71
2022/05/20 14:54:00;;;;;;;4.38;2.85;;;;;;;;;;6190698;28;20229;-70
2022/05/20 14:57:29;;;;;;;3.20;2.08;;;;;;;;;;6204300;28;20233;-71
2022/05/20 15:00:55;;;;;;;4.25;2.92;;;;;;;;;;6197535;28;20228;-70
2022/05/20 15:04:15;;;;;;;2.45;2.30;;;;;;;;;;6204941;28;20675;-70
2022/05/20 15:07:37;;;;;;;5.35;4.78;;;;;;;;;;6197570;28;20674;-70
2022/05/20 15:10:59;;;;;;;3.30;1.95;;;;;;;;;;6204851;28;20216;-69
2022/05/20 15:14:19;;;;;;;2.10;1.88;;;;;;;;;;6195667;28;20492;-70
2022/05/20 15:17:57;;;;;;;2.78;1.73;;;;;;;;;;6197184;28;22142;-72
2022/05/20 15:21:22;;;;;;;2.60;2.13;;;;;;;;;;6198516;28;20225;-71
2022/05/20 15:24:44;;;;;;;4.55;2.10;;;;;;;;;;6199844;28;20229;-70
2022/05/20 15:28:47;;;;;;;3.15;1.75;;;;;;;;;;6203414;28;20241;-71
2022/05/20 15:35:25;;;;;;;3.00;1.73;;;;;;;;;;6198114;28;20257;-70
2022/05/20 15:38:46;;;;;;;1.45;1.35;;;;;;;;;;6203603;28;20230;-71
2022/05/20 15:42:06;;;;;;;2.47;1.55;;;;;;;;;;6203281;28;20237;-70
2022/05/20 15:45:28;;;;;;;1.88;1.65;;;;;;;;;;6182688;28;20245;-70
2022/05/20 15:48:49;;;;;;;2.03;1.58;;;;;;;;;;6200453;28;20621;-70
2022/05/20 15:52:13;;;;;;;3.45;1.85;;;;;;;;;;6203644;28;20229;-69
2022/05/20 15:55:34;;;;;;;3.20;1.88;;;;;;;;;;6198261;28;20241;-69
2022/05/20 15:58:56;;;;;;;2.72;2.25;;;;;;;;;;6195682;28;20343;-71
2022/05/20 16:02:18;;;;;;;1.77;1.67;;;;;;;;;;6197463;28;20260;-69
2022/05/20 16:05:41;;;;;;;2.40;2.20;;;;;;;;;;6194520;28;20233;-67
2022/05/20 16:09:04;;;;;;;4.40;2.53;;;;;;;;;;6193314;28;20281;-71
2022/05/20 16:12:24;;;;;;;2.20;1.83;;;;;;;;;;6202909;28;20232;-67
2022/05/20 16:15:45;;;;;;;5.18;2.70;;;;;;;;;;6208122;28;20571;-68
2022/05/20 16:19:06;;;;;;;4.05;2.25;;;;;;;;;;6202429;28;20480;-69
2022/05/20 16:22:28;;;;;;;2.63;2.42;;;;;;;;;;6187189;28;20228;-69
2022/05/20 16:25:55;;;;;;;2.33;1.75;;;;;;;;;;6208138;28;20511;-69
2022/05/20 16:29:16;;;;;;;3.13;1.90;;;;;;;;;;6202073;28;20238;-70
2022/05/20 16:32:37;;;;;;;2.45;2.15;;;;;;;;;;6201858;28;20225;-68
2022/05/20 16:35:57;;;;;;;2.30;1.65;;;;;;;;;;6192667;28;20685;-69
2022/05/20 16:39:18;;;;;;;2.60;2.10;;;;;;;;;;6202011;28;20237;-68
2022/05/20 16:42:40;;;;;;;4.20;2.10;;;;;;;;;;6201196;28;20229;-70
2022/05/20 16:46:01;;;;;;;4.07;2.40;;;;;;;;;;6198474;28;20225;-67
2022/05/20 16:49:24;;;;;;;5.43;3.40;;;;;;;;;;6173767;28;20225;-69
2022/05/20 16:52:46;;;;;;;3.95;2.67;;;;;;;;;;6180778;28;20249;-69
2022/05/20 17:03:27;;;;;;;3.72;2.35;;;;;;;;;;6184327;28;20229;-69
2022/05/20 17:06:49;;;;;;;3.30;2.58;;;;;;;;;;6201196;28;20233;-68
2022/05/20 17:10:11;;;;;;;5.10;3.75;;;;;;;;;;6200113;28;20225;-68
2022/05/20 17:13:32;;;;;;;5.43;3.55;;;;;;;;;;6202752;28;20229;-68
2022/05/20 17:16:55;;;;;;;3.55;2.65;;;;;;;;;;6196044;28;20245;-69
2022/05/20 17:20:15;;;;;;;4.53;3.00;;;;;;;;;;6199138;28;20232;-69
2022/05/20 17:27:16;;;;;;;3.13;2.83;;;;;;;;;;6207076;28;20240;-69
2022/05/20 17:30:36;;;;;;;4.78;3.47;;;;;;;;;;6201779;28;20273;-70
2022/05/20 17:33:58;;;;;;;2.67;2.35;;;;;;;;;;6198649;28;20650;-69
2022/05/20 17:37:20;;;;;;;4.68;2.40;;;;;;;;;;6197608;28;20856;-70
2022/05/20 17:40:41;;;;;;;4.00;3.40;;;;;;;;;;6207428;28;20544;-67
2022/05/20 17:44:02;;;;;;;2.88;2.58;;;;;;;;;;6198348;28;20265;-68
2022/05/20 17:47:24;;;;;;;5.88;3.88;;;;;;;;;;6194375;28;20233;-70
2022/05/20 17:50:45;;;;;;;6.53;5.38;;;;;;;;;;6199056;28;20503;-68
2022/05/20 17:54:06;;;;;;;4.90;3.88;;;;;;;;;;6197309;28;20529;-68
2022/05/20 17:57:30;;;;;;;3.85;3.55;;;;;;;;;;6198737;28;20245;-69
2022/05/20 18:00:50;;;;;;;3.65;3.38;;;;;;;;;;6183048;28;20233;-68
2022/05/20 18:04:11;;;;;;;2.78;2.25;;;;;;;;;;6192611;28;20252;-70
2022/05/20 18:07:34;;;;;;;3.85;3.42;;;;;;;;;;6193046;28;20245;-71
2022/05/20 18:10:55;;;;;;;6.80;3.80;;;;;;;;;;6192416;28;20233;-70
2022/05/20 18:14:16;;;;;;;3.38;3.00;;;;;;;;;;6196257;28;20683;-71
2022/05/20 18:17:36;;;;;;;3.35;2.72;;;;;;;;;;6196656;28;20332;-71
2022/05/20 18:21:01;;;;;;;4.60;3.75;;;;;;;;;;6201507;28;20229;-70
2022/05/20 18:24:23;;;;;;;3.97;3.58;;;;;;;;;;6199367;28;20233;-74
2022/05/20 18:27:44;;;;;;;3.92;3.38;;;;;;;;;;6200630;28;20249;-72
2022/05/20 18:31:06;;;;;;;5.43;3.00;;;;;;;;;;6191827;28;20225;-74
2022/05/20 18:41:45;;;;;;;3.53;2.72;;;;;;;;;;6203103;28;20220;-74
2022/05/20 18:45:07;;;;;;;5.38;4.07;;;;;;;;;;6204579;28;20233;-72
2022/05/20 18:48:27;;;;;;;3.05;2.78;;;;;;;;;;6192620;28;20229;-73
2022/05/20 18:51:48;;;;;;;2.75;2.53;;;;;;;;;;6202406;28;20327;-75
2022/05/20 18:55:10;;;;;;;3.17;2.85;;;;;;;;;;6198521;28;20228;-74
2022/05/20 18:58:34;;;;;;;3.15;2.67;;;;;;;;;;6201786;28;20229;-73
2022/05/20 19:01:57;;;;;;;4.00;3.60;;;;;;;;;;6186306;28;20229;-72
2022/05/20 19:05:18;;;;;;;4.10;3.70;;;;;;;;;;6197324;28;20237;-73
2022/05/20 19:08:39;;;;;;;4.00;2.78;;;;;;;;;;6195618;28;20240;-76
2022/05/20 19:12:01;;;;;;;5.03;2.90;;;;;;;;;;6200810;28;20630;-73
2022/05/20 19:15:23;;;;;;;6.70;4.03;;;;;;;;;;6198953;28;20241;-73
2022/05/20 19:18:43;;;;;;;3.50;3.30;;;;;;;;;;6202525;28;20285;-72
2022/05/20 19:22:06;;;;;;;3.38;3.08;;;;;;;;;;6203566;28;20237;-72
2022/05/20 19:25:27;;;;;;;3.13;2.85;;;;;;;;;;6201768;28;20237;-74
2022/05/20 19:28:48;;;;;;;3.58;3.08;;;;;;;;;;6210526;28;20237;-75
2022/05/20 19:32:11;;;;;;;6.57;3.50;;;;;;;;;;6203833;28;21100;-79
2022/05/20 19:35:32;;;;;;;3.92;3.35;;;;;;;;;;6207198;28;20237;-82
2022/05/20 19:38:53;;;;;;;5.78;3.38;;;;;;;;;;6208958;28;20228;-81
2022/05/20 19:42:14;;;;;;;5.35;4.43;;;;;;;;;;6210187;28;20229;-75
2022/05/20 19:45:35;;;;;;;4.60;3.90;;;;;;;;;;6203104;28;20264;-76
2022/05/20 19:48:57;;;;;;;4.10;3.72;;;;;;;;;;6204144;28;20225;-77
2022/05/20 19:52:18;;;;;;;5.00;4.50;;;;;;;;;;6207300;28;20229;-78
2022/05/20 19:55:40;;;;;;;5.60;4.85;;;;;;;;;;6205820;28;20705;-73
2022/05/20 20:02:39;;;;;;;6.07;5.35;;;;;;;;;;6205956;28;20633;-78
2022/05/20 20:06:02;;;;;;;6.32;4.97;;;;;;;;;;6200554;28;20809;-80
2022/05/20 20:09:22;;;;;;;5.93;4.65;;;;;;;;;;6186119;28;20225;-78
2022/05/20 20:12:43;;;;;;;6.38;5.55;;;;;;;;;;6208621;28;20312;-80
2022/05/20 20:16:06;;;;;;;4.45;3.88;;;;;;;;;;6185264;28;20233;-77
2022/05/20 20:19:27;;;;;;;5.25;4.70;;;;;;;;;;6187997;28;20261;-75
2022/05/20 20:26:28;;;;;;;5.00;4.63;;;;;;;;;;6203567;28;20233;-77
2022/05/20 20:29:49;;;;;;;7.10;4.95;;;;;;;;;;6204301;28;20237;-78
2022/05/20 20:33:10;;;;;;;5.25;4.80;;;;;;;;;;6205380;28;20237;-79
2022/05/20 20:36:31;;;;;;;6.03;5.43;;;;;;;;;;6202538;28;20237;-80
2022/05/20 20:39:53;;;;;;;6.25;5.72;;;;;;;;;;6208145;28;20236;-78
2022/05/20 20:43:15;;;;;;;7.30;6.28;;;;;;;;;;6207494;28;20257;-79
2022/05/20 20:46:36;;;;;;;6.75;5.68;;;;;;;;;;6202541;28;20233;-79
2022/05/20 20:49:56;;;;;;;7.20;6.50;;;;;;;;;;6204584;28;20236;-75
2022/05/20 20:53:19;;;;;;;5.85;5.25;;;;;;;;;;6205192;28;20257;-74
2022/05/20 20:56:42;;;;;;;6.50;5.90;;;;;;;;;;6207100;28;20881;-74
2022/05/20 21:00:04;;;;;;;5.13;4.65;;;;;;;;;;6206786;28;20225;-75
2022/05/20 21:03:26;;;;;;;6.28;5.68;;;;;;;;;;6187335;28;20234;-75
2022/05/20 21:06:46;;;;;;;5.82;5.38;;;;;;;;;;6204176;28;21968;-76
2022/05/20 21:10:07;;;;;;;9.00;8.07;;;;;;;;;;6203945;28;20226;-65
2022/05/20 21:13:29;;;;;;;11.15;10.15;;;;;;;;;;6194043;28;20664;-70
2022/05/20 21:16:50;;;;;;;10.88;9.98;;;;;;;;;;6204963;28;20404;-70
2022/05/20 21:20:11;;;;;;;11.13;10.32;;;;;;;;;;6202284;28;20233;-71
2022/05/20 21:23:31;;;;;;;9.70;8.95;;;;;;;;;;6196035;28;20232;-70
2022/05/20 21:26:52;;;;;;;7.97;7.38;;;;;;;;;;6200850;28;20236;-70